Time;durP1;ratioP1;P1;durP2;ratioP2;P2;SDS_P1;SDS_P2;PMS_P1;PMS_P2;Temp;Humidity;BMP_temperature;BMP_pressure;BME280_temperature;BME280_humidity;BME280_pressure;Samples;Min_cycle;Max_cycle;Signal;HPM_P1;HPM_P2
2023/01/30 00:01:59;;;;;;;766.13;263.77;;;0.20;99.90;;;;;;5068182;28;20717;-51
2023/01/30 00:04:27;;;;;;;825.17;238.67;;;0.20;99.90;;;;;;5068285;28;20232;-52
2023/01/30 00:06:55;;;;;;;569.27;203.43;;;0.30;99.90;;;;;;5068624;28;20212;-52
2023/01/30 00:09:23;;;;;;;1476.63;436.37;;;0.30;99.90;;;;;;5068387;28;20224;-51
2023/01/30 00:11:51;;;;;;;1999.90;570.00;;;0.30;99.90;;;;;;5063138;28;20313;-51
2023/01/30 00:14:19;;;;;;;1432.93;351.93;;;0.20;99.90;;;;;;5063400;28;20688;-52
2023/01/30 00:16:49;;;;;;;1210.00;312.63;;;0.20;99.90;;;;;;5068352;28;20244;-51
2023/01/30 00:19:16;;;;;;;1999.90;603.73;;;0.20;99.90;;;;;;5068331;28;20292;-50
2023/01/30 00:21:44;;;;;;;1333.57;311.23;;;0.10;99.90;;;;;;5034539;28;20219;-52
2023/01/30 00:24:12;;;;;;;1890.03;346.17;;;0.00;99.90;;;;;;5044009;28;20248;-52
2023/01/30 00:26:41;;;;;;;555.03;217.03;;;0.00;99.90;;;;;;5049231;28;20912;-51
2023/01/30 00:29:09;;;;;;;223.57;122.83;;;-0.10;99.90;;;;;;5042839;28;20198;-51
2023/01/30 00:31:37;;;;;;;182.40;91.33;;;0.00;99.90;;;;;;5048077;28;20233;-52
2023/01/30 00:34:06;;;;;;;377.97;129.77;;;0.10;99.90;;;;;;5048272;28;20198;-51
2023/01/30 00:36:34;;;;;;;1781.93;434.63;;;0.10;99.90;;;;;;5042987;28;20297;-51
2023/01/30 00:39:02;;;;;;;1375.20;398.40;;;0.10;99.90;;;;;;5047931;28;20585;-51
2023/01/30 00:47:07;;;;;;;785.93;262.83;;;0.10;99.90;;;;;;5051862;28;20300;-51
2023/01/30 00:49:37;;;;;;;247.67;154.53;;;0.20;99.90;;;;;;5051786;28;20235;-50
2023/01/30 00:52:06;;;;;;;820.47;305.80;;;0.20;99.90;;;;;;5065515;28;20308;-52
2023/01/30 00:54:34;;;;;;;1935.47;431.57;;;0.20;99.90;;;;;;5071647;28;20251;-51
2023/01/30 00:57:02;;;;;;;1241.00;326.03;;;0.20;99.90;;;;;;5064042;28;20225;-51
2023/01/30 00:59:30;;;;;;;1367.00;384.07;;;0.10;99.90;;;;;;5069950;28;20205;-51
2023/01/30 01:01:58;;;;;;;743.80;253.23;;;0.10;99.90;;;;;;5061007;28;20229;-52
2023/01/30 01:04:27;;;;;;;1612.73;394.20;;;0.10;99.90;;;;;;5069173;28;20234;-51
2023/01/30 01:06:56;;;;;;;283.67;173.37;;;0.20;99.90;;;;;;5059424;28;20784;-50
2023/01/30 01:09:24;;;;;;;1277.03;255.60;;;0.30;99.90;;;;;;5068642;28;20303;-52
2023/01/30 01:11:52;;;;;;;306.87;184.63;;;0.20;99.90;;;;;;5060247;28;20239;-51
2023/01/30 01:14:20;;;;;;;388.13;205.90;;;0.30;99.90;;;;;;5071119;28;20209;-52
2023/01/30 01:16:48;;;;;;;176.70;124.13;;;0.40;99.90;;;;;;5071357;28;20208;-52
2023/01/30 01:19:16;;;;;;;494.07;265.87;;;0.50;99.90;;;;;;5055003;28;20294;-52
2023/01/30 01:21:44;;;;;;;304.67;147.30;;;0.50;99.90;;;;;;5043506;28;20304;-51
2023/01/30 01:24:15;;;;;;;215.47;122.07;;;0.40;99.90;;;;;;5071048;28;20292;-52
2023/01/30 01:26:43;;;;;;;751.83;294.10;;;0.40;99.90;;;;;;5068286;28;20292;-51
2023/01/30 01:29:13;;;;;;;379.53;147.03;;;0.50;99.90;;;;;;5071320;28;20307;-53
2023/01/30 01:31:41;;;;;;;367.90;163.13;;;0.40;99.90;;;;;;5051098;28;20888;-51
2023/01/30 01:34:09;;;;;;;956.27;210.23;;;0.40;99.90;;;;;;5070980;28;20204;-51
2023/01/30 01:36:38;;;;;;;308.70;188.83;;;0.40;99.90;;;;;;5071229;28;20249;-51
2023/01/30 01:39:23;;;;;;;138.47;91.60;;;0.50;99.90;;;;;;5070456;28;20219;-49
2023/01/30 01:41:51;;;;;;;482.17;222.97;;;0.50;99.90;;;;;;5070683;28;20213;-51
2023/01/30 01:44:19;;;;;;;172.90;138.10;;;0.60;99.90;;;;;;5061075;28;20268;-51
2023/01/30 01:46:51;;;;;;;395.43;181.67;;;0.60;99.90;;;;;;5068715;28;20269;-52
2023/01/30 01:49:24;;;;;;;290.47;182.00;;;0.60;99.90;;;;;;5044196;28;20214;-51
2023/01/30 01:51:58;;;;;;;536.50;238.50;;;0.70;99.90;;;;;;5053469;28;20239;-52
2023/01/30 01:54:35;;;;;;;165.43;103.70;;;0.70;99.90;;;;;;5069475;28;20203;-51
2023/01/30 01:57:06;;;;;;;172.53;117.57;;;0.70;99.90;;;;;;5066189;28;20307;-52
2023/01/30 01:59:38;;;;;;;128.63;71.83;;;0.70;99.90;;;;;;5070372;28;20201;-50
2023/01/30 02:02:11;;;;;;;217.97;118.93;;;0.70;99.90;;;;;;5070014;28;20271;-51
2023/01/30 02:07:31;;;;;;;257.20;144.60;;;0.60;99.90;;;;;;5070597;28;20251;-52
2023/01/30 02:10:01;;;;;;;163.03;109.73;;;0.70;99.90;;;;;;5057676;28;20235;-52
2023/01/30 02:12:29;;;;;;;520.77;168.20;;;0.60;99.90;;;;;;5049327;28;20241;-52
2023/01/30 02:14:58;;;;;;;190.30;111.20;;;0.60;99.90;;;;;;5050315;28;20216;-52
2023/01/30 02:17:27;;;;;;;150.80;105.00;;;0.70;99.90;;;;;;5037836;28;20214;-51
2023/01/30 02:19:59;;;;;;;343.10;171.20;;;0.70;99.90;;;;;;5049952;28;20611;-51
2023/01/30 02:23:15;;;;;;;416.10;180.00;;;0.80;99.90;;;;;;5042827;28;20234;-52
2023/01/30 02:26:20;;;;;;;1488.90;313.30;;;0.80;99.90;;;;;;5036541;28;20901;-52
2023/01/30 02:29:20;;;;;;;784.70;247.43;;;0.70;99.90;;;;;;5038824;28;20226;-52
2023/01/30 02:31:54;;;;;;;544.40;200.77;;;0.70;99.90;;;;;;5049540;28;20240;-51
2023/01/30 02:34:37;;;;;;;652.57;233.73;;;0.70;99.90;;;;;;5050055;28;20220;-52
2023/01/30 02:37:15;;;;;;;1213.07;235.00;;;0.70;99.90;;;;;;5049407;28;20598;-52
2023/01/30 02:39:55;;;;;;;302.63;141.43;;;0.60;99.90;;;;;;5049826;28;20944;-51
2023/01/30 02:42:34;;;;;;;951.73;216.77;;;0.70;99.90;;;;;;5049566;28;20228;-52
2023/01/30 02:45:10;;;;;;;1117.30;244.37;;;0.70;99.90;;;;;;5049443;28;20686;-51
2023/01/30 02:47:45;;;;;;;323.53;124.50;;;0.60;99.90;;;;;;5049642;28;20208;-51
2023/01/30 02:50:16;;;;;;;1182.37;308.30;;;0.70;99.90;;;;;;5049328;28;20288;-50
2023/01/30 02:52:45;;;;;;;1249.17;253.03;;;0.70;99.90;;;;;;5068813;28;20234;-52
2023/01/30 02:55:19;;;;;;;363.40;154.67;;;0.70;99.90;;;;;;5069543;28;20674;-51
2023/01/30 02:57:47;;;;;;;360.23;141.27;;;0.80;99.90;;;;;;5069762;28;20239;-51
2023/01/30 03:00:19;;;;;;;372.73;178.50;;;0.80;99.90;;;;;;5069510;28;20244;-52
2023/01/30 03:03:09;;;;;;;537.43;204.10;;;0.90;99.90;;;;;;5068852;28;20222;-51
2023/01/30 03:05:58;;;;;;;695.50;233.07;;;1.00;99.90;;;;;;5068795;28;20302;-51
2023/01/30 03:08:32;;;;;;;359.53;181.00;;;0.90;99.90;;;;;;5069163;28;20584;-52
2023/01/30 03:11:04;;;;;;;166.37;99.03;;;1.00;99.90;;;;;;5069425;28;20301;-51
2023/01/30 03:13:45;;;;;;;167.03;109.47;;;1.00;99.90;;;;;;5069142;28;20667;-51
2023/01/30 03:16:18;;;;;;;294.33;165.87;;;1.10;99.90;;;;;;5069671;28;20776;-53
2023/01/30 03:18:48;;;;;;;447.77;143.03;;;1.10;99.90;;;;;;5069076;28;20223;-51
2023/01/30 03:21:16;;;;;;;645.07;156.60;;;1.10;99.90;;;;;;5068808;28;20217;-51
2023/01/30 03:23:45;;;;;;;417.10;160.50;;;1.10;99.90;;;;;;5069041;28;20284;-51
2023/01/30 03:26:17;;;;;;;288.17;102.80;;;1.10;99.90;;;;;;5069076;28;20816;-51
2023/01/30 03:28:48;;;;;;;447.83;189.57;;;1.00;99.90;;;;;;5061028;28;20216;-52
2023/01/30 03:31:16;;;;;;;955.83;167.00;;;1.10;99.90;;;;;;5069003;28;20297;-52
2023/01/30 03:33:44;;;;;;;239.27;103.77;;;1.10;99.90;;;;;;5069220;28;20249;-51
2023/01/30 03:36:14;;;;;;;1050.60;216.13;;;1.00;99.90;;;;;;5052635;28;20217;-51
2023/01/30 03:38:42;;;;;;;697.03;234.23;;;1.00;99.90;;;;;;5068234;28;20262;-50
2023/01/30 03:41:10;;;;;;;634.90;172.40;;;1.00;99.90;;;;;;5069154;28;20305;-52
2023/01/30 03:43:38;;;;;;;432.17;168.57;;;1.10;99.90;;;;;;5068543;28;20310;-50
2023/01/30 03:46:06;;;;;;;1288.00;279.93;;;1.00;99.90;;;;;;5069413;28;20299;-51
2023/01/30 03:48:34;;;;;;;208.53;98.20;;;1.00;99.90;;;;;;5068801;28;20254;-51
2023/01/30 03:51:02;;;;;;;127.57;77.57;;;1.00;99.90;;;;;;5055064;28;20205;-52
2023/01/30 03:53:31;;;;;;;364.80;152.33;;;1.10;99.90;;;;;;5068533;28;20271;-52
2023/01/30 03:55:59;;;;;;;244.57;104.77;;;1.20;99.90;;;;;;5069152;28;20294;-52
2023/01/30 03:58:27;;;;;;;502.90;156.37;;;1.20;99.90;;;;;;5060998;28;20219;-52
2023/01/30 04:00:56;;;;;;;269.27;110.27;;;1.20;99.90;;;;;;5048747;28;20764;-50
2023/01/30 04:03:25;;;;;;;751.83;203.97;;;1.20;99.90;;;;;;5048796;28;20272;-51
2023/01/30 04:05:52;;;;;;;452.70;133.20;;;1.20;99.90;;;;;;5037255;28;20214;-52
2023/01/30 04:08:20;;;;;;;385.93;127.43;;;1.20;99.90;;;;;;5041718;28;20326;-52
2023/01/30 04:10:50;;;;;;;352.40;122.57;;;1.20;99.90;;;;;;5048653;28;20296;-52
2023/01/30 04:13:18;;;;;;;482.97;156.43;;;1.20;99.90;;;;;;5048338;28;20256;-51
2023/01/30 04:15:46;;;;;;;168.47;89.63;;;1.20;99.90;;;;;;5048571;28;20287;-51
2023/01/30 04:18:14;;;;;;;150.27;80.13;;;1.20;99.90;;;;;;5051071;28;20297;-50
2023/01/30 04:20:42;;;;;;;790.00;199.63;;;1.30;99.90;;;;;;5052640;28;20205;-52
2023/01/30 04:23:10;;;;;;;122.03;67.03;;;1.40;99.90;;;;;;5043640;28;20312;-50
2023/01/30 04:25:38;;;;;;;204.03;82.53;;;1.50;99.90;;;;;;5052558;28;20296;-52
2023/01/30 04:28:07;;;;;;;690.20;157.03;;;1.50;99.90;;;;;;5052416;28;20647;-51
2023/01/30 04:30:35;;;;;;;1295.53;225.40;;;1.50;99.90;;;;;;5052138;28;20642;-52
2023/01/30 04:33:03;;;;;;;650.80;162.90;;;1.50;99.90;;;;;;5037862;28;20695;-51
2023/01/30 04:35:31;;;;;;;1064.33;199.30;;;1.50;99.90;;;;;;5048556;28;20372;-51
2023/01/30 04:37:59;;;;;;;831.10;170.23;;;1.50;99.90;;;;;;5051520;28;20301;-51
2023/01/30 04:40:27;;;;;;;566.97;162.50;;;1.60;99.90;;;;;;5051702;28;20302;-51
2023/01/30 04:42:55;;;;;;;968.77;223.73;;;1.60;99.90;;;;;;5047342;28;20218;-51
2023/01/30 04:45:25;;;;;;;346.23;128.93;;;1.60;99.90;;;;;;5051900;28;20271;-51
2023/01/30 04:47:53;;;;;;;1202.63;230.00;;;1.60;99.90;;;;;;5051923;28;20329;-51
2023/01/30 04:50:21;;;;;;;383.77;143.33;;;1.60;99.90;;;;;;5051606;28;20224;-51
2023/01/30 04:52:49;;;;;;;323.00;121.97;;;1.60;99.90;;;;;;5062349;28;20231;-51
2023/01/30 04:55:17;;;;;;;449.40;142.53;;;1.60;99.90;;;;;;5064739;28;20293;-51
2023/01/30 04:57:45;;;;;;;154.90;85.63;;;1.60;99.90;;;;;;5051351;28;20201;-51
2023/01/30 05:00:14;;;;;;;539.87;150.13;;;1.60;99.90;;;;;;5050189;28;20650;-52
2023/01/30 05:02:43;;;;;;;178.47;105.33;;;1.60;99.90;;;;;;5050661;28;20726;-52
2023/01/30 05:05:11;;;;;;;948.50;169.27;;;1.70;99.90;;;;;;5051269;28;20288;-51
2023/01/30 05:07:39;;;;;;;970.73;139.10;;;1.70;99.90;;;;;;5050574;28;20689;-51
2023/01/30 05:10:08;;;;;;;1675.97;307.37;;;1.70;99.90;;;;;;5064560;28;20757;-51
2023/01/30 05:12:36;;;;;;;246.13;81.03;;;1.70;99.90;;;;;;5050287;28;20221;-51
2023/01/30 05:15:05;;;;;;;142.27;82.47;;;1.70;99.90;;;;;;5050576;28;20237;-51
2023/01/30 05:17:33;;;;;;;418.87;93.87;;;1.70;99.90;;;;;;5050115;28;20213;-51
2023/01/30 05:20:03;;;;;;;539.83;113.37;;;1.70;99.90;;;;;;5049307;28;20202;-51
2023/01/30 05:22:31;;;;;;;115.73;69.10;;;1.70;99.90;;;;;;5049723;28;20221;-51
2023/01/30 05:24:59;;;;;;;414.37;125.20;;;1.70;99.90;;;;;;5055021;28;20259;-51
2023/01/30 05:27:27;;;;;;;216.60;94.63;;;1.70;99.90;;;;;;5051678;28;20643;-51
2023/01/30 05:29:55;;;;;;;1014.43;226.20;;;1.80;99.90;;;;;;5046965;28;20213;-51
2023/01/30 05:32:24;;;;;;;578.07;166.33;;;1.80;99.90;;;;;;5047784;28;20248;-51
2023/01/30 05:34:52;;;;;;;192.63;82.57;;;1.70;99.90;;;;;;5050761;28;20283;-50
2023/01/30 05:37:23;;;;;;;1495.33;238.13;;;1.80;99.90;;;;;;5050626;28;20309;-51
2023/01/30 05:39:51;;;;;;;835.87;167.47;;;1.70;99.90;;;;;;5040467;28;20263;-51
2023/01/30 05:42:19;;;;;;;415.60;104.43;;;1.70;99.90;;;;;;5042365;28;20258;-51
2023/01/30 05:44:47;;;;;;;823.40;163.40;;;1.70;99.90;;;;;;5046837;28;20611;-51
2023/01/30 05:47:15;;;;;;;473.20;130.70;;;1.80;99.90;;;;;;5043570;28;20286;-51
2023/01/30 05:49:43;;;;;;;244.50;84.77;;;1.70;99.90;;;;;;5047832;28;20227;-51
2023/01/30 05:52:11;;;;;;;299.23;84.07;;;1.80;99.90;;;;;;5048553;28;20320;-51
2023/01/30 05:54:40;;;;;;;163.17;63.27;;;1.80;99.90;;;;;;5046643;28;20263;-51
2023/01/30 05:57:08;;;;;;;1999.90;341.20;;;1.90;99.90;;;;;;5050012;28;20666;-51
2023/01/30 05:59:36;;;;;;;475.80;117.57;;;1.80;99.90;;;;;;5048866;28;20638;-51
2023/01/30 06:02:04;;;;;;;469.13;124.23;;;1.90;99.90;;;;;;5047002;28;20847;-51
2023/01/30 06:04:32;;;;;;;169.37;71.10;;;1.90;99.90;;;;;;5048932;28;20261;-51
2023/01/30 06:07:00;;;;;;;152.07;74.53;;;1.90;99.90;;;;;;5049971;28;20659;-51
2023/01/30 06:09:28;;;;;;;106.53;73.67;;;1.90;99.90;;;;;;5049505;28;20213;-50
2023/01/30 06:11:57;;;;;;;232.63;77.30;;;2.00;99.90;;;;;;5050067;28;20938;-51
2023/01/30 06:14:25;;;;;;;91.60;54.47;;;2.00;99.90;;;;;;5049073;28;20236;-51
2023/01/30 06:16:53;;;;;;;267.73;95.07;;;2.00;99.90;;;;;;5050124;28;20312;-51
2023/01/30 06:19:22;;;;;;;318.37;108.07;;;2.00;99.90;;;;;;5045534;28;20244;-51
2023/01/30 06:21:50;;;;;;;513.00;108.77;;;2.00;99.90;;;;;;5047618;28;20968;-51
2023/01/30 06:24:18;;;;;;;501.23;137.97;;;2.00;99.90;;;;;;5049047;28;20328;-51
2023/01/30 06:26:46;;;;;;;316.87;113.27;;;1.90;99.90;;;;;;5050006;28;20288;-51
2023/01/30 06:29:16;;;;;;;82.47;52.87;;;1.90;99.90;;;;;;5049311;28;20221;-51
2023/01/30 06:31:44;;;;;;;124.00;84.30;;;2.00;99.90;;;;;;5039874;28;20326;-51
2023/01/30 06:34:12;;;;;;;162.03;104.43;;;2.00;99.90;;;;;;5047734;28;20784;-51
2023/01/30 06:36:40;;;;;;;587.73;143.37;;;2.10;99.90;;;;;;5043847;28;20307;-51
2023/01/30 06:39:08;;;;;;;65.07;46.53;;;2.00;99.90;;;;;;5045138;28;20209;-51
2023/01/30 06:41:36;;;;;;;176.30;99.37;;;2.10;99.90;;;;;;5049197;28;20206;-51
2023/01/30 06:44:05;;;;;;;309.33;77.83;;;2.00;99.90;;;;;;5048271;28;20281;-51
2023/01/30 06:46:34;;;;;;;1170.73;166.73;;;2.00;99.90;;;;;;5049095;28;20211;-51
2023/01/30 06:49:02;;;;;;;1804.20;295.90;;;2.00;99.90;;;;;;5049222;28;20211;-51
2023/01/30 06:51:31;;;;;;;322.70;100.03;;;1.90;99.90;;;;;;5048798;28;20271;-52
2023/01/30 06:53:59;;;;;;;83.07;55.57;;;2.00;99.90;;;;;;5049182;28;20230;-51
2023/01/30 06:56:27;;;;;;;1702.67;248.13;;;2.00;99.90;;;;;;5049317;28;20287;-50
2023/01/30 06:58:55;;;;;;;536.97;175.27;;;2.00;99.90;;;;;;5050033;28;20235;-51
2023/01/30 07:01:23;;;;;;;788.87;143.60;;;2.00;99.90;;;;;;5048532;28;20212;-52
2023/01/30 07:03:52;;;;;;;129.93;76.60;;;2.00;99.90;;;;;;5049105;28;20250;-52
2023/01/30 07:06:20;;;;;;;251.93;77.17;;;2.10;99.90;;;;;;5046132;28;20206;-50
2023/01/30 07:08:48;;;;;;;1513.53;243.03;;;2.10;99.90;;;;;;5048626;28;20328;-52
2023/01/30 07:11:16;;;;;;;1109.97;195.33;;;2.10;99.90;;;;;;5048848;28;20224;-53
2023/01/30 07:13:44;;;;;;;690.33;191.20;;;2.20;99.90;;;;;;5040317;28;20224;-52
2023/01/30 07:16:12;;;;;;;139.00;90.07;;;2.30;99.90;;;;;;5048996;28;20207;-52
2023/01/30 07:18:40;;;;;;;162.33;74.60;;;2.30;99.90;;;;;;5048666;28;20206;-53
2023/01/30 07:21:10;;;;;;;164.30;69.53;;;2.30;99.90;;;;;;5048246;28;20730;-52
2023/01/30 07:23:38;;;;;;;604.67;123.03;;;2.30;99.90;;;;;;5048775;28;20312;-51
2023/01/30 07:26:06;;;;;;;127.10;52.93;;;2.30;99.90;;;;;;5048757;28;20646;-51
2023/01/30 07:28:34;;;;;;;77.13;50.23;;;2.30;99.90;;;;;;5049101;28;20639;-51
2023/01/30 07:31:02;;;;;;;196.43;89.83;;;2.30;99.90;;;;;;5055117;28;20645;-51
2023/01/30 07:33:30;;;;;;;178.60;85.20;;;2.40;99.90;;;;;;5044441;28;20653;-52
2023/01/30 07:35:58;;;;;;;344.33;105.87;;;2.40;99.90;;;;;;5045425;28;20224;-51
2023/01/30 07:38:28;;;;;;;334.57;117.80;;;2.40;99.90;;;;;;5042397;28;20293;-51
2023/01/30 07:40:57;;;;;;;58.90;31.73;;;2.40;99.90;;;;;;5046823;28;20295;-51
2023/01/30 07:43:25;;;;;;;140.37;66.37;;;2.40;99.90;;;;;;5040461;28;20775;-52
2023/01/30 07:45:53;;;;;;;74.07;55.47;;;2.50;99.90;;;;;;5046879;28;20217;-53
2023/01/30 07:48:21;;;;;;;854.77;138.27;;;2.50;99.90;;;;;;5047745;28;20303;-53
2023/01/30 07:50:49;;;;;;;138.10;88.40;;;2.50;99.90;;;;;;5047256;28;20263;-53
2023/01/30 07:53:18;;;;;;;480.77;120.73;;;2.50;99.90;;;;;;5049217;28;20238;-51
2023/01/30 07:55:47;;;;;;;52.40;37.50;;;2.60;99.90;;;;;;5050314;28;20229;-52
2023/01/30 07:58:16;;;;;;;178.23;83.00;;;2.60;99.90;;;;;;5051042;28;20241;-52
2023/01/30 08:00:45;;;;;;;110.80;58.57;;;2.60;99.90;;;;;;5050528;28;20230;-51
2023/01/30 08:03:14;;;;;;;71.47;41.93;;;2.60;99.90;;;;;;5049058;28;20291;-52
2023/01/30 08:05:43;;;;;;;93.57;63.57;;;2.60;99.90;;;;;;5050111;28;20206;-56
2023/01/30 08:08:11;;;;;;;80.07;68.60;;;2.60;99.90;;;;;;5050479;28;20218;-51
2023/01/30 08:10:39;;;;;;;173.93;54.63;;;2.70;99.90;;;;;;5038626;28;20213;-50
2023/01/30 08:13:08;;;;;;;197.23;89.83;;;2.70;99.90;;;;;;5049453;28;20227;-51
2023/01/30 08:15:36;;;;;;;157.57;88.80;;;2.70;99.90;;;;;;5051462;28;20317;-53
2023/01/30 08:18:06;;;;;;;118.57;85.93;;;2.70;99.90;;;;;;5052340;28;20734;-53
2023/01/30 08:20:34;;;;;;;117.10;55.97;;;2.70;99.90;;;;;;5052650;28;20208;-51
2023/01/30 08:23:02;;;;;;;73.57;49.70;;;2.70;99.90;;;;;;5051962;28;20253;-51
2023/01/30 08:25:31;;;;;;;58.80;47.70;;;2.70;99.90;;;;;;5051779;28;20319;-51
2023/01/30 08:27:59;;;;;;;78.33;51.30;;;2.70;99.90;;;;;;5052720;28;20245;-50
2023/01/30 08:30:30;;;;;;;912.60;170.13;;;2.80;99.90;;;;;;5052076;28;20291;-52
2023/01/30 08:32:58;;;;;;;65.10;48.27;;;2.90;99.90;;;;;;5051757;28;20222;-52
2023/01/30 08:35:26;;;;;;;192.53;66.10;;;2.90;99.90;;;;;;5051826;28;20660;-52
2023/01/30 08:37:54;;;;;;;38.80;29.77;;;2.80;99.90;;;;;;5045675;28;20294;-52
2023/01/30 08:40:22;;;;;;;290.03;99.23;;;2.90;99.90;;;;;;5051912;28;20670;-51
2023/01/30 08:42:50;;;;;;;59.07;39.70;;;2.90;99.90;;;;;;5051442;28;20705;-51
2023/01/30 08:45:18;;;;;;;63.67;52.70;;;2.90;99.90;;;;;;5042287;28;20708;-51
2023/01/30 08:47:48;;;;;;;77.17;67.53;;;2.90;99.90;;;;;;5049148;28;20575;-51
2023/01/30 08:50:16;;;;;;;297.00;76.37;;;2.90;99.90;;;;;;5052022;28;20377;-52
2023/01/30 08:52:45;;;;;;;58.43;46.50;;;2.90;99.90;;;;;;5051550;28;20242;-51
2023/01/30 08:55:12;;;;;;;33.90;28.13;;;2.90;99.90;;;;;;5051878;28;20267;-52
2023/01/30 08:57:40;;;;;;;86.70;63.43;;;2.90;99.90;;;;;;5051647;28;20358;-52
2023/01/30 09:00:10;;;;;;;55.27;49.53;;;3.00;99.90;;;;;;5051511;28;20284;-51
2023/01/30 09:02:38;;;;;;;74.50;41.57;;;3.00;99.90;;;;;;5050880;28;20230;-51
2023/01/30 09:05:09;;;;;;;49.53;35.43;;;3.00;99.90;;;;;;5037088;28;20579;-51
2023/01/30 09:07:37;;;;;;;82.43;51.23;;;3.10;99.90;;;;;;5044872;28;20579;-52
2023/01/30 09:10:06;;;;;;;107.50;61.87;;;3.20;99.90;;;;;;5045146;28;20696;-51
2023/01/30 09:12:34;;;;;;;167.70;69.90;;;3.30;99.90;;;;;;5050733;28;20323;-51
2023/01/30 09:15:02;;;;;;;62.97;37.57;;;3.40;99.90;;;;;;5047061;28;20295;-52
2023/01/30 09:17:30;;;;;;;664.83;99.17;;;3.50;99.90;;;;;;5043656;28;20291;-52
2023/01/30 09:19:58;;;;;;;61.77;36.07;;;3.70;99.90;;;;;;5049751;28;20293;-51
2023/01/30 09:22:28;;;;;;;247.80;75.87;;;3.80;99.90;;;;;;5050003;28;20222;-53
2023/01/30 09:24:57;;;;;;;77.43;43.93;;;3.80;99.90;;;;;;5043344;28;20296;-51
2023/01/30 09:27:26;;;;;;;387.20;102.63;;;3.90;99.90;;;;;;5045584;28;20285;-51
2023/01/30 09:29:54;;;;;;;361.63;85.33;;;4.00;99.90;;;;;;5041805;28;20218;-51
2023/01/30 09:32:22;;;;;;;353.47;123.53;;;3.90;99.90;;;;;;5050746;28;20234;-52
2023/01/30 09:34:50;;;;;;;34.83;31.47;;;3.80;99.90;;;;;;5050425;28;20293;-52
2023/01/30 09:37:18;;;;;;;40.03;31.63;;;3.80;99.90;;;;;;5049910;28;20321;-52
2023/01/30 09:39:47;;;;;;;127.93;51.23;;;3.90;99.90;;;;;;5050388;28;20850;-52
2023/01/30 09:42:34;;;;;;;132.20;54.07;;;4.10;99.90;;;;;;5050161;28;20760;-52
2023/01/30 09:45:24;;;;;;;712.50;161.07;;;4.20;99.90;;;;;;5048784;28;20205;-51
2023/01/30 09:47:58;;;;;;;46.20;34.60;;;4.20;99.90;;;;;;5050137;28;20683;-53
2023/01/30 09:50:45;;;;;;;107.37;56.07;;;4.40;99.90;;;;;;5050634;28;20217;-52
2023/01/30 09:53:21;;;;;;;70.73;44.80;;;4.50;99.90;;;;;;5048606;28;20229;-53
2023/01/30 09:55:50;;;;;;;1999.90;760.23;;;4.70;99.90;;;;;;5046575;28;20272;-51
2023/01/30 09:58:20;;;;;;;1067.80;199.53;;;4.90;99.90;;;;;;5048757;28;20321;-51
2023/01/30 10:00:52;;;;;;;551.63;129.07;;;5.00;99.90;;;;;;5050250;28;20551;-51
2023/01/30 10:03:23;;;;;;;913.80;209.13;;;5.10;99.90;;;;;;5049559;28;20319;-53
2023/01/30 10:05:54;;;;;;;1999.90;571.63;;;4.90;99.90;;;;;;5043078;28;20212;-51
2023/01/30 10:08:42;;;;;;;1053.90;237.23;;;4.80;99.90;;;;;;5050135;28;20290;-51
2023/01/30 10:11:27;;;;;;;1073.70;221.33;;;4.80;99.90;;;;;;5049953;28;20316;-53
2023/01/30 10:14:19;;;;;;;1060.17;221.27;;;4.90;99.90;;;;;;5046381;28;20208;-51
2023/01/30 10:17:00;;;;;;;1463.23;337.00;;;5.00;99.90;;;;;;5047027;28;20310;-52
2023/01/30 10:20:02;;;;;;;1999.90;458.97;;;5.10;99.90;;;;;;5050234;28;20643;-51
2023/01/30 10:22:41;;;;;;;897.07;177.23;;;5.10;99.90;;;;;;5049833;28;20225;-51
2023/01/30 10:25:22;;;;;;;1017.13;244.10;;;5.10;99.90;;;;;;5049849;28;20288;-52
2023/01/30 10:27:57;;;;;;;1860.93;343.33;;;5.10;99.90;;;;;;5049959;28;20211;-52
2023/01/30 10:30:25;;;;;;;1269.47;360.73;;;5.10;99.90;;;;;;5049891;28;20600;-53
2023/01/30 10:32:57;;;;;;;1999.90;401.30;;;5.00;99.90;;;;;;5049497;28;20726;-53
2023/01/30 10:35:30;;;;;;;1999.90;638.20;;;5.00;99.90;;;;;;5049918;28;20219;-52
2023/01/30 10:38:04;;;;;;;1999.90;576.57;;;5.10;99.90;;;;;;5049788;28;20198;-51
2023/01/30 10:40:39;;;;;;;973.50;273.37;;;5.00;99.90;;;;;;5048944;28;20235;-51
2023/01/30 10:43:18;;;;;;;1999.90;423.20;;;4.90;99.90;;;;;;5049002;28;20262;-51
2023/01/30 10:45:54;;;;;;;1304.97;253.57;;;4.80;99.90;;;;;;5047742;28;20207;-52
2023/01/30 10:48:45;;;;;;;640.63;177.63;;;4.90;99.90;;;;;;5048767;28;20211;-52
2023/01/30 10:51:23;;;;;;;1265.37;274.93;;;5.00;99.90;;;;;;5040718;28;20212;-52
2023/01/30 10:53:57;;;;;;;1886.57;328.20;;;5.10;99.90;;;;;;5047493;28;20198;-52
2023/01/30 10:56:33;;;;;;;1172.40;168.07;;;5.30;99.90;;;;;;5047148;28;20235;-52
2023/01/30 10:59:11;;;;;;;454.67;107.07;;;5.50;99.90;;;;;;5044590;28;20748;-53
2023/01/30 11:01:44;;;;;;;937.17;183.77;;;5.50;99.90;;;;;;5048018;28;20682;-52
2023/01/30 11:04:22;;;;;;;364.57;71.90;;;5.60;99.90;;;;;;5042566;28;20288;-51
2023/01/30 11:06:52;;;;;;;1943.10;371.30;;;5.70;99.90;;;;;;5038657;28;20200;-51
2023/01/30 11:09:19;;;;;;;1597.17;309.87;;;5.80;99.90;;;;;;5048169;28;20414;-52
2023/01/30 11:11:52;;;;;;;1999.90;463.00;;;5.90;99.90;;;;;;5040888;28;20225;-52
2023/01/30 11:14:22;;;;;;;1999.90;667.03;;;5.90;99.90;;;;;;5048277;28;20273;-51
2023/01/30 11:16:53;;;;;;;1999.90;481.30;;;5.80;99.90;;;;;;5043575;28;20695;-52
2023/01/30 11:19:24;;;;;;;1781.67;366.33;;;5.90;99.90;;;;;;5048612;28;20215;-51
2023/01/30 11:21:55;;;;;;;397.43;147.93;;;5.90;99.90;;;;;;5044570;28;20312;-52
2023/01/30 11:24:29;;;;;;;1999.90;495.40;;;6.00;99.90;;;;;;5036579;28;20763;-51
2023/01/30 11:27:10;;;;;;;1999.90;664.77;;;6.20;99.90;;;;;;5038304;28;20683;-51
2023/01/30 11:29:39;;;;;;;1999.90;543.27;;;6.30;99.90;;;;;;5052392;28;20212;-51
2023/01/30 11:32:14;;;;;;;1999.90;443.03;;;6.40;99.90;;;;;;5049982;28;20648;-51
2023/01/30 11:34:43;;;;;;;1845.10;487.70;;;6.40;99.90;;;;;;5048646;28;20730;-51
2023/01/30 11:37:22;;;;;;;1973.13;404.93;;;6.20;99.90;;;;;;5042936;28;20324;-51
2023/01/30 11:39:53;;;;;;;1532.07;355.57;;;6.20;99.90;;;;;;5045332;28;20292;-51
2023/01/30 11:42:25;;;;;;;1337.70;326.13;;;6.10;99.90;;;;;;5058675;28;20235;-51
2023/01/30 11:44:59;;;;;;;1999.90;549.77;;;6.10;99.90;;;;;;5054508;28;20235;-51
2023/01/30 11:47:50;;;;;;;1999.90;645.33;;;5.90;99.90;;;;;;5046682;28;20208;-51
2023/01/30 11:50:34;;;;;;;1252.27;308.77;;;5.90;99.90;;;;;;5040549;28;20312;-51
2023/01/30 11:53:26;;;;;;;1999.90;647.87;;;5.90;99.90;;;;;;5046394;28;20721;-51
2023/01/30 11:55:58;;;;;;;1999.90;491.97;;;5.90;99.90;;;;;;5046861;28;20262;-51
2023/01/30 11:58:36;;;;;;;1660.77;385.70;;;5.90;99.90;;;;;;5050076;28;20195;-51
2023/01/30 12:01:07;;;;;;;1999.90;557.77;;;5.80;99.90;;;;;;5062299;28;20300;-52
2023/01/30 12:03:45;;;;;;;1999.90;546.87;;;5.90;99.90;;;;;;5046946;28;20315;-52
2023/01/30 12:06:22;;;;;;;977.83;236.17;;;6.10;99.90;;;;;;5045933;28;20197;-51
2023/01/30 12:08:53;;;;;;;1861.07;455.50;;;6.00;99.90;;;;;;5041998;28;20297;-51
2023/01/30 12:11:28;;;;;;;1988.53;496.43;;;6.00;99.90;;;;;;5038537;28;20289;-51
2023/01/30 12:14:08;;;;;;;1836.00;382.30;;;6.10;99.90;;;;;;5047802;28;20199;-51
2023/01/30 12:16:51;;;;;;;1999.90;799.70;;;6.00;99.90;;;;;;5042766;28;20224;-52
2023/01/30 12:19:31;;;;;;;1171.73;230.90;;;5.90;99.90;;;;;;5041277;28;20247;-50
2023/01/30 12:22:04;;;;;;;1999.90;488.60;;;5.80;99.90;;;;;;5042529;28;20362;-52
2023/01/30 12:24:39;;;;;;;1999.90;406.27;;;5.90;99.90;;;;;;5047944;28;20214;-51
2023/01/30 12:27:15;;;;;;;1537.80;272.67;;;5.80;99.90;;;;;;5037548;28;20241;-51
2023/01/30 12:29:52;;;;;;;904.63;180.30;;;5.80;99.90;;;;;;5047941;28;20298;-52
2023/01/30 12:32:27;;;;;;;1232.60;273.80;;;5.80;99.90;;;;;;5047543;28;20272;-51
2023/01/30 12:34:55;;;;;;;1999.90;679.30;;;5.90;99.90;;;;;;5055854;28;20241;-50
2023/01/30 12:37:50;;;;;;;1999.90;525.70;;;6.00;99.90;;;;;;5058212;28;20598;-51
2023/01/30 12:40:32;;;;;;;1100.63;267.87;;;5.80;99.90;;;;;;5054330;28;20221;-51
2023/01/30 12:43:28;;;;;;;153.30;69.70;;;5.80;99.90;;;;;;5070976;28;20226;-51
2023/01/30 12:46:04;;;;;;;637.03;141.30;;;5.80;99.90;;;;;;5063711;28;20214;-51
2023/01/30 12:48:59;;;;;;;912.13;254.87;;;6.00;99.90;;;;;;5047121;28;20211;-51